createdAt,value
2019-03-02T00:00:56.762Z,82.44
2019-03-02T00:01:54.902Z,82.34
2019-03-02T00:02:56.810Z,81.92
2019-03-02T00:03:54.843Z,81.71
2019-03-02T00:04:54.798Z,82.03
2019-03-02T00:05:57.019Z,82.03
2019-03-02T00:06:54.731Z,81.71
2019-03-02T00:07:54.721Z,81.92
2019-03-02T00:08:56.765Z,81.71
2019-03-02T00:09:54.627Z,81.81
2019-03-02T00:10:55.220Z,81.71
2019-03-02T00:11:56.523Z,81.81
2019-03-02T00:12:54.742Z,81.81
2019-03-02T00:13:55.211Z,81.92
2019-03-02T00:14:55.066Z,81.46
2019-03-02T00:15:55.218Z,81.19
2019-03-02T00:16:54.388Z,81.29
2019-03-02T00:17:55.152Z,81.60
2019-03-02T00:18:54.327Z,81.19
2019-03-02T00:19:54.298Z,80.98
2019-03-02T00:20:55.619Z,81.46
2019-03-02T00:21:54.218Z,81.40
2019-03-02T00:22:54.185Z,81.57
2019-03-02T00:23:55.253Z,81.77
2019-03-02T00:24:57.760Z,81.88
2019-03-02T00:25:54.849Z,82.20
2019-03-02T00:26:54.052Z,82.30
2019-03-02T00:27:57.772Z,81.57
2019-03-02T00:28:54.004Z,81.36
2019-03-02T00:29:53.941Z,81.36
2019-03-02T00:30:54.828Z,80.74
2019-03-02T00:31:53.874Z,81.57
2019-03-02T00:32:53.840Z,81.57
2019-03-02T00:33:56.720Z,80.84
2019-03-02T00:34:53.772Z,81.05
2019-03-02T00:35:53.738Z,81.15
2019-03-02T00:36:55.214Z,81.26
2019-03-02T00:37:53.677Z,81.26
2019-03-02T00:38:53.745Z,81.15
2019-03-02T00:39:54.594Z,81.05
2019-03-02T00:40:53.567Z,81.05
2019-03-02T00:41:53.534Z,81.26
2019-03-02T00:42:53.500Z,81.32
2019-03-02T00:43:53.644Z,81.15
2019-03-02T00:44:54.215Z,81.26
2019-03-02T00:45:53.479Z,81.22
2019-03-02T00:46:56.389Z,81.46
2019-03-02T00:47:53.329Z,81.43
2019-03-02T00:48:53.323Z,81.01
2019-03-02T00:49:53.257Z,80.29
2019-03-02T00:50:53.222Z,80.43
2019-03-02T00:51:53.190Z,80.43
2019-03-02T00:52:55.623Z,80.60
2019-03-02T00:53:53.148Z,80.32
2019-03-02T00:54:58.105Z,80.32
2019-03-02T00:55:53.718Z,81.01
2019-03-02T00:56:53.018Z,81.01
2019-03-02T00:57:54.489Z,80.80
2019-03-02T00:58:52.975Z,81.01
2019-03-02T00:59:52.923Z,80.80
2019-03-02T01:00:53.674Z,80.91
2019-03-02T01:01:52.850Z,81.12
2019-03-02T01:02:53.715Z,81.26
2019-03-02T01:03:52.822Z,81.32
2019-03-02T01:04:52.747Z,81.43
2019-03-02T01:05:53.225Z,81.12
2019-03-02T01:06:52.690Z,81.22
2019-03-02T01:07:55.894Z,81.22
2019-03-02T01:08:52.635Z,81.43
2019-03-02T01:09:53.251Z,81.53
2019-03-02T01:10:54.742Z,81.22
2019-03-02T01:11:53.216Z,81.26
2019-03-02T01:12:53.226Z,81.12
2019-03-02T01:13:53.689Z,81.32
2019-03-02T01:14:52.406Z,81.22
2019-03-02T01:15:53.221Z,81.22
2019-03-02T01:16:55.163Z,81.12
2019-03-02T01:17:52.302Z,81.01
2019-03-02T01:18:52.292Z,81.32
2019-03-02T01:19:52.607Z,81.32
2019-03-02T01:20:52.716Z,81.74
2019-03-02T01:21:52.174Z,82.26
2019-03-02T01:22:52.778Z,81.95
2019-03-02T01:23:52.122Z,82.15
2019-03-02T01:24:52.065Z,82.26
2019-03-02T01:25:52.034Z,81.53
2019-03-02T01:26:51.993Z,81.43
2019-03-02T01:27:51.984Z,81.32
2019-03-02T01:28:51.926Z,81.12
2019-03-02T01:29:54.635Z,81.43
2019-03-02T01:30:51.861Z,80.77
2019-03-02T01:31:51.830Z,80.35
2019-03-02T01:32:52.633Z,80.39
2019-03-02T01:33:52.717Z,80.29
2019-03-02T01:34:51.756Z,80.70
2019-03-02T01:35:53.972Z,81.01
2019-03-02T01:36:51.659Z,81.18
2019-03-02T01:37:51.621Z,81.18
2019-03-02T01:38:54.021Z,81.12
2019-03-02T01:39:51.580Z,81.01
2019-03-02T01:40:51.519Z,80.98
2019-03-02T01:41:53.934Z,80.80
2019-03-02T01:42:51.457Z,80.80
2019-03-02T01:43:51.426Z,81.49
2019-03-02T01:44:51.674Z,81.08
2019-03-02T01:45:51.350Z,81.22
2019-03-02T01:46:51.315Z,81.29
2019-03-02T01:47:52.100Z,80.98
2019-03-02T01:48:52.232Z,80.98
2019-03-02T01:49:51.239Z,81.49
2019-03-02T01:50:51.183Z,81.49
2019-03-02T01:51:51.162Z,81.18
2019-03-02T01:52:51.118Z,80.98
2019-03-02T01:53:51.726Z,80.98
2019-03-02T01:54:52.567Z,80.87
2019-03-02T01:55:51.722Z,81.18
2019-03-02T01:56:50.979Z,81.49
2019-03-02T01:57:52.307Z,81.04
2019-03-02T01:58:51.722Z,81.29
2019-03-02T01:59:51.256Z,81.08
2019-03-02T02:00:51.721Z,80.73
2019-03-02T02:01:50.805Z,81.29
2019-03-02T02:02:50.785Z,81.81
2019-03-02T02:03:50.741Z,81.60
2019-03-02T02:04:50.769Z,81.60
2019-03-02T02:05:50.690Z,81.67
2019-03-02T02:06:50.647Z,81.60
2019-03-02T02:07:53.881Z,81.18
2019-03-02T02:08:50.645Z,81.29
2019-03-02T02:09:50.766Z,81.39
2019-03-02T02:10:50.569Z,81.60
2019-03-02T02:11:53.334Z,81.49
2019-03-02T02:12:51.235Z,81.81
2019-03-02T02:13:51.230Z,82.32
2019-03-02T02:14:50.919Z,82.12
2019-03-02T02:15:50.331Z,82.12
2019-03-02T02:16:50.300Z,82.22
2019-03-02T02:17:52.931Z,81.91
2019-03-02T02:18:50.230Z,82.32
2019-03-02T02:19:50.232Z,82.22
2019-03-02T02:20:50.638Z,82.22
2019-03-02T02:21:50.130Z,82.22
2019-03-02T02:22:57.134Z,82.32
2019-03-02T02:23:59.275Z,82.53
2019-03-02T02:25:00.519Z,82.53
2019-03-02T02:25:58.825Z,82.32
2019-03-02T02:26:59.384Z,82.95
2019-03-02T02:27:59.411Z,82.53
2019-03-02T02:28:49.908Z,82.43
2019-03-02T02:29:49.861Z,82.53
2019-03-02T02:30:49.950Z,82.74
2019-03-02T02:31:49.788Z,82.64
2019-03-02T02:32:49.754Z,82.32
2019-03-02T02:33:50.419Z,82.99
2019-03-02T02:34:50.421Z,82.89
2019-03-02T02:35:49.949Z,82.74
2019-03-02T02:36:53.166Z,83.05
2019-03-02T02:37:49.593Z,82.78
2019-03-02T02:38:53.999Z,83.58
2019-03-02T02:39:51.418Z,83.61
2019-03-02T02:40:49.512Z,84.03
2019-03-02T02:41:49.445Z,84.23
2019-03-02T02:42:49.415Z,84.44
2019-03-02T02:43:49.556Z,84.44
2019-03-02T02:44:49.348Z,84.55
2019-03-02T02:45:53.716Z,84.03
2019-03-02T02:46:49.281Z,84.65
2019-03-02T02:47:52.377Z,84.44
2019-03-02T02:48:49.927Z,84.55
2019-03-02T02:49:51.083Z,84.44
2019-03-02T02:50:49.957Z,84.23
2019-03-02T02:51:50.291Z,84.30
2019-03-02T02:52:49.971Z,83.82
2019-03-02T02:53:49.032Z,84.13
2019-03-02T02:54:49.011Z,84.20
2019-03-02T02:55:48.996Z,83.78
2019-03-02T02:56:48.967Z,84.34
2019-03-02T02:57:51.439Z,84.34
2019-03-02T02:58:55.338Z,84.34
2019-03-02T02:59:48.844Z,83.61
2019-03-02T03:00:50.415Z,83.92
2019-03-02T03:01:48.759Z,84.30
2019-03-02T03:02:48.728Z,84.03
2019-03-02T03:03:48.701Z,84.41
2019-03-02T03:04:48.666Z,84.51
2019-03-02T03:05:49.385Z,84.55
2019-03-02T03:06:48.592Z,84.72
2019-03-02T03:07:53.136Z,84.65
2019-03-02T03:08:49.435Z,84.44
2019-03-02T03:09:50.726Z,84.65
2019-03-02T03:10:48.482Z,84.75
2019-03-02T03:11:48.424Z,84.75
2019-03-02T03:12:48.929Z,84.75
2019-03-02T03:13:48.363Z,84.55
2019-03-02T03:14:48.325Z,84.13
2019-03-02T03:15:48.330Z,84.30
2019-03-02T03:16:49.444Z,83.99
2019-03-02T03:17:48.239Z,84.23
2019-03-02T03:18:52.484Z,84.30
2019-03-02T03:19:48.238Z,84.23
2019-03-02T03:20:50.780Z,83.72
2019-03-02T03:21:48.106Z,84.13
2019-03-02T03:22:48.047Z,84.44
2019-03-02T03:24:48.923Z,84.23
2019-03-02T03:25:56.153Z,84.03
2019-03-02T03:26:47.938Z,84.65
2019-03-02T03:27:51.924Z,84.75
2019-03-02T03:28:48.425Z,84.34
2019-03-02T03:29:49.443Z,84.75
2019-03-02T03:30:47.789Z,84.34
2019-03-02T03:31:47.767Z,84.03
2019-03-02T03:32:55.514Z,84.55
2019-03-02T03:33:47.785Z,84.75
2019-03-02T03:34:47.666Z,84.86
2019-03-02T03:35:51.682Z,84.75
2019-03-02T03:36:47.593Z,84.55
2019-03-02T03:37:51.274Z,84.55
2019-03-02T03:38:47.507Z,84.44
2019-03-02T03:39:48.430Z,84.55
2019-03-02T03:40:48.423Z,84.96
2019-03-02T03:41:47.429Z,85.06
2019-03-02T03:42:47.367Z,84.65
2019-03-02T03:43:47.987Z,84.65
2019-03-02T03:44:47.925Z,84.55
2019-03-02T03:45:47.270Z,84.51
2019-03-02T03:46:47.259Z,84.44
2019-03-02T03:47:47.934Z,84.55
2019-03-02T03:48:51.318Z,84.65
2019-03-02T03:49:47.980Z,84.20
2019-03-02T03:50:51.888Z,84.23
2019-03-02T03:51:47.090Z,83.89
2019-03-02T03:52:48.928Z,84.61
2019-03-02T03:53:47.929Z,84.61
2019-03-02T03:54:46.965Z,84.75
2019-03-02T03:55:46.928Z,84.41
2019-03-02T03:56:46.920Z,83.92
2019-03-02T03:57:47.436Z,84.41
2019-03-02T03:58:47.439Z,84.55
2019-03-02T03:59:46.910Z,84.65
2019-03-02T04:00:47.425Z,84.61
2019-03-02T04:01:46.750Z,84.65
2019-03-02T04:02:46.700Z,84.72
2019-03-02T04:03:47.228Z,84.75
2019-03-02T04:04:46.625Z,84.82
2019-03-02T04:05:48.738Z,85.17
2019-03-02T04:06:46.583Z,85.24
2019-03-02T04:07:49.665Z,84.82
2019-03-02T04:08:46.568Z,84.72
2019-03-02T04:09:53.832Z,84.30
2019-03-02T04:10:46.462Z,84.51
2019-03-02T04:11:46.489Z,84.78
2019-03-02T04:12:46.398Z,84.61
2019-03-02T04:13:46.946Z,84.72
2019-03-02T04:14:46.322Z,84.72
2019-03-02T04:15:46.255Z,84.51
2019-03-02T04:16:46.324Z,84.65
2019-03-02T04:17:46.217Z,84.82
2019-03-02T04:18:50.350Z,84.72
2019-03-02T04:19:46.159Z,84.82
2019-03-02T04:20:49.680Z,85.24
2019-03-02T04:21:46.084Z,85.24
2019-03-02T04:22:46.939Z,85.03
2019-03-02T04:23:46.021Z,85.13
2019-03-02T04:24:45.949Z,85.34
2019-03-02T04:25:45.914Z,85.13
2019-03-02T04:26:45.942Z,85.75
2019-03-02T04:27:53.271Z,85.55
2019-03-02T04:28:45.815Z,85.96
2019-03-02T04:29:50.213Z,85.75
2019-03-02T04:30:46.471Z,85.75
2019-03-02T04:31:48.515Z,85.24
2019-03-02T04:32:45.705Z,85.20
2019-03-02T04:33:45.649Z,84.78
2019-03-02T04:34:46.466Z,84.99
2019-03-02T04:35:45.580Z,84.78
2019-03-02T04:36:47.295Z,84.68
2019-03-02T04:37:45.967Z,84.61
2019-03-02T04:38:45.472Z,84.68
2019-03-02T04:39:46.504Z,84.68
2019-03-02T04:40:45.422Z,84.68
2019-03-02T04:41:45.378Z,84.47
2019-03-02T04:42:46.545Z,84.37
2019-03-02T04:43:45.307Z,84.58
2019-03-02T04:44:45.279Z,84.47
2019-03-02T04:45:45.939Z,84.05
2019-03-02T04:46:47.656Z,84.16
2019-03-02T04:47:45.475Z,84.47
2019-03-02T04:48:45.136Z,84.37
2019-03-02T04:49:47.600Z,84.68
2019-03-02T04:50:45.087Z,84.53
2019-03-02T04:51:45.041Z,84.78
2019-03-02T04:52:46.686Z,84.68
2019-03-02T04:53:44.976Z,84.47
2019-03-02T04:54:44.935Z,84.47
2019-03-02T04:55:45.648Z,83.84
2019-03-02T04:56:44.869Z,84.37
2019-03-02T04:57:44.972Z,84.16
2019-03-02T04:58:46.911Z,83.84
2019-03-02T04:59:44.778Z,84.53
2019-03-02T05:00:45.436Z,84.43
2019-03-02T05:01:46.259Z,84.53
2019-03-02T05:02:44.695Z,84.37
2019-03-02T05:03:44.635Z,84.37
2019-03-02T05:04:44.602Z,84.47
2019-03-02T05:05:44.567Z,84.47
2019-03-02T05:06:44.533Z,84.68
2019-03-02T05:07:44.969Z,84.84
2019-03-02T05:08:45.437Z,85.68
2019-03-02T05:09:44.431Z,85.41
2019-03-02T05:10:44.938Z,85.61
2019-03-02T05:11:44.365Z,85.41
2019-03-02T05:12:44.401Z,85.51
2019-03-02T05:13:44.450Z,85.51
2019-03-02T05:14:44.946Z,85.51
2019-03-02T05:15:44.230Z,85.72
2019-03-02T05:16:44.200Z,85.20
2019-03-02T05:17:44.269Z,84.89
2019-03-02T05:18:44.940Z,85.51
2019-03-02T05:19:44.100Z,85.61
2019-03-02T05:20:44.073Z,85.61
2019-03-02T05:21:44.413Z,85.47
2019-03-02T05:22:44.037Z,85.51
2019-03-02T05:23:43.977Z,85.30
2019-03-02T05:24:44.430Z,85.41
2019-03-02T05:25:43.908Z,86.03
2019-03-02T05:26:43.951Z,85.41
2019-03-02T05:27:44.000Z,86.13
2019-03-02T05:28:44.484Z,85.30
2019-03-02T05:29:44.552Z,86.03
2019-03-02T05:30:43.724Z,86.03
2019-03-02T05:31:43.697Z,86.03
2019-03-02T05:32:43.692Z,85.82
2019-03-02T05:33:44.449Z,85.93
2019-03-02T05:34:43.591Z,85.72
2019-03-02T05:35:47.787Z,85.72
2019-03-02T05:36:43.526Z,86.03
2019-03-02T05:37:43.988Z,85.72
2019-03-02T05:38:44.543Z,86.13
2019-03-02T05:39:44.908Z,86.03
2019-03-02T05:40:44.514Z,86.13
2019-03-02T05:41:44.842Z,86.03
2019-03-02T05:42:48.577Z,85.72
2019-03-02T05:43:45.028Z,86.03
2019-03-02T05:44:43.260Z,86.24
2019-03-02T05:45:43.229Z,86.03
2019-03-02T05:46:43.843Z,86.13
2019-03-02T05:47:43.164Z,85.93
2019-03-02T05:48:44.351Z,85.78
2019-03-02T05:49:43.098Z,85.93
2019-03-02T05:50:43.950Z,85.82
2019-03-02T05:51:44.047Z,86.24
2019-03-02T05:52:43.844Z,86.03
2019-03-02T05:53:42.976Z,86.03
2019-03-02T05:54:42.917Z,85.99
2019-03-02T05:55:42.880Z,85.99
2019-03-02T05:56:42.852Z,86.19
2019-03-02T05:57:43.441Z,85.99
2019-03-02T05:58:42.835Z,85.78
2019-03-02T05:59:43.448Z,86.24
2019-03-02T06:00:43.446Z,85.51
2019-03-02T06:01:43.439Z,85.99
2019-03-02T06:02:42.973Z,85.88
2019-03-02T06:03:45.753Z,85.99
2019-03-02T06:04:42.581Z,85.47
2019-03-02T06:05:42.545Z,85.78
2019-03-02T06:06:42.512Z,85.78
2019-03-02T06:07:42.485Z,85.68
2019-03-02T06:08:42.495Z,85.68
2019-03-02T06:09:42.945Z,85.68
2019-03-02T06:10:42.389Z,86.05
2019-03-02T06:11:42.347Z,85.88
2019-03-02T06:12:42.316Z,85.78
2019-03-02T06:13:42.308Z,85.68
2019-03-02T06:14:42.246Z,85.78
2019-03-02T06:15:43.304Z,85.99
2019-03-02T06:16:42.184Z,86.09
2019-03-02T06:17:42.143Z,85.68
2019-03-02T06:18:42.572Z,86.09
2019-03-02T06:19:42.129Z,85.99
2019-03-02T06:20:42.055Z,85.95
2019-03-02T06:21:45.962Z,86.41
2019-03-02T06:22:42.049Z,85.78
2019-03-02T06:23:41.976Z,85.64
2019-03-02T06:24:42.036Z,86.16
2019-03-02T06:25:41.889Z,85.85
2019-03-02T06:26:41.842Z,85.85
2019-03-02T06:27:43.160Z,85.74
2019-03-02T06:28:41.803Z,85.74
2019-03-02T06:29:41.745Z,85.74
2019-03-02T06:30:44.046Z,85.74
2019-03-02T06:31:42.450Z,85.64
2019-03-02T06:32:42.447Z,85.53
2019-03-02T06:33:44.111Z,85.74
2019-03-02T06:34:42.447Z,85.53
2019-03-02T06:35:41.545Z,86.05
2019-03-02T06:36:44.691Z,85.95
2019-03-02T06:37:41.474Z,85.12
2019-03-02T06:38:41.467Z,85.74
2019-03-02T06:39:44.422Z,85.95
2019-03-02T06:40:42.350Z,85.95
2019-03-02T06:41:41.951Z,85.74
2019-03-02T06:42:45.581Z,85.64
2019-03-02T06:43:41.480Z,85.60
2019-03-02T06:44:41.460Z,85.81
2019-03-02T06:45:43.563Z,85.29
2019-03-02T06:46:41.173Z,85.39
2019-03-02T06:47:41.145Z,85.29
2019-03-02T06:48:41.635Z,85.50
2019-03-02T06:49:41.098Z,84.88
2019-03-02T06:50:41.133Z,84.46
2019-03-02T06:51:43.775Z,84.77
2019-03-02T06:52:41.954Z,84.77
2019-03-02T06:53:40.940Z,84.77
2019-03-02T06:54:40.931Z,84.67
2019-03-02T06:55:40.879Z,84.67
2019-03-02T06:56:40.841Z,84.83
2019-03-02T06:57:40.802Z,84.67
2019-03-02T06:58:40.830Z,84.56
2019-03-02T06:59:40.771Z,84.73
2019-03-02T07:00:41.567Z,85.08
2019-03-02T07:01:40.668Z,85.66
2019-03-02T07:02:40.646Z,84.73
2019-03-02T07:03:42.929Z,84.63
2019-03-02T07:04:40.991Z,84.63
2019-03-02T07:05:40.539Z,84.63
2019-03-02T07:06:43.402Z,84.52
2019-03-02T07:07:40.484Z,84.31
2019-03-02T07:08:40.955Z,84.21
2019-03-02T07:09:41.733Z,84.21
2019-03-02T07:10:40.369Z,84.11
2019-03-02T07:11:40.949Z,84.31
2019-03-02T07:12:41.809Z,84.52
2019-03-02T07:13:40.278Z,84.31
2019-03-02T07:14:40.277Z,84.38
2019-03-02T07:15:43.792Z,84.31
2019-03-02T07:16:40.171Z,83.69
2019-03-02T07:17:40.137Z,84.17
2019-03-02T07:18:42.421Z,83.86
2019-03-02T07:19:40.105Z,83.86
2019-03-02T07:20:40.042Z,84.17
2019-03-02T07:21:41.462Z,83.14
2019-03-02T07:22:39.974Z,83.97
2019-03-02T07:23:39.944Z,83.72
2019-03-02T07:24:39.929Z,83.03
2019-03-02T07:25:40.739Z,82.68
2019-03-02T07:26:39.840Z,82.68
2019-03-02T07:27:40.455Z,82.58
2019-03-02T07:28:42.218Z,82.89
2019-03-02T07:29:39.772Z,82.48
2019-03-02T07:30:42.450Z,82.48
2019-03-02T07:31:39.694Z,82.06
2019-03-02T07:32:40.448Z,82.27
2019-03-02T07:33:40.453Z,82.17
2019-03-02T07:34:40.681Z,82.27
2019-03-02T07:35:39.573Z,82.27
2019-03-02T07:36:40.458Z,82.17
2019-03-02T07:37:40.678Z,82.13
2019-03-02T07:38:39.455Z,81.20
2019-03-02T07:39:39.415Z,80.57
2019-03-02T07:40:41.217Z,81.09
2019-03-02T07:41:39.343Z,81.16
2019-03-02T07:42:39.320Z,80.74
2019-03-02T07:43:42.275Z,80.54
2019-03-02T07:44:39.248Z,79.81
2019-03-02T07:45:39.240Z,80.22
2019-03-02T07:46:39.959Z,80.02
2019-03-02T07:47:39.152Z,79.81
2019-03-02T07:48:39.118Z,79.91
2019-03-02T07:49:39.115Z,79.67
2019-03-02T07:50:39.078Z,79.47
2019-03-02T07:51:41.448Z,79.05
2019-03-02T07:52:39.006Z,78.85
2019-03-02T07:53:39.454Z,79.02
2019-03-02T07:54:42.556Z,78.02
2019-03-02T07:55:38.918Z,77.50
2019-03-02T07:56:38.866Z,78.02
2019-03-02T07:57:40.678Z,77.47
2019-03-02T07:58:38.792Z,77.60
2019-03-02T07:59:38.766Z,77.50
2019-03-02T08:00:40.904Z,77.60
2019-03-02T08:01:38.693Z,77.70
2019-03-02T08:02:38.669Z,77.81
2019-03-02T08:03:38.630Z,77.81
2019-03-02T08:04:39.805Z,78.05
2019-03-02T08:05:38.992Z,78.02
2019-03-02T08:06:39.454Z,78.36
2019-03-02T08:07:39.468Z,77.50
2019-03-02T08:08:39.472Z,77.81
2019-03-02T08:09:38.962Z,78.02
2019-03-02T08:10:39.640Z,77.81
2019-03-02T08:11:38.373Z,77.60
2019-03-02T08:12:38.341Z,77.81
2019-03-02T08:13:38.307Z,77.64
2019-03-02T08:14:38.274Z,77.50
2019-03-02T08:15:38.499Z,77.19
2019-03-02T08:16:38.798Z,77.12
2019-03-02T08:17:38.249Z,77.12
2019-03-02T08:18:38.144Z,76.98
2019-03-02T08:19:38.114Z,77.01
2019-03-02T08:20:38.103Z,76.98
2019-03-02T08:21:38.047Z,76.71
2019-03-02T08:22:38.013Z,76.88
2019-03-02T08:23:38.967Z,75.88
2019-03-02T08:24:40.161Z,76.26
2019-03-02T08:25:38.002Z,76.98
2019-03-02T08:26:37.886Z,76.88
2019-03-02T08:27:37.866Z,76.05
2019-03-02T08:28:38.458Z,76.46
2019-03-02T08:29:38.576Z,76.98
2019-03-02T08:30:37.995Z,77.09
2019-03-02T08:31:37.722Z,76.26
2019-03-02T08:32:38.484Z,76.15
2019-03-02T08:33:45.630Z,76.84
2019-03-02T08:34:37.626Z,76.95
2019-03-02T08:35:37.994Z,75.91
2019-03-02T08:36:37.564Z,75.19
2019-03-02T08:37:38.464Z,75.29
2019-03-02T08:38:38.470Z,74.98
2019-03-02T08:39:37.492Z,75.81
2019-03-02T08:40:38.081Z,75.29
2019-03-02T08:41:37.887Z,75.29
2019-03-02T08:42:37.960Z,74.98
2019-03-02T08:43:37.971Z,74.36
2019-03-02T08:44:37.302Z,74.77
2019-03-02T08:45:37.959Z,75.40
2019-03-02T08:46:37.500Z,75.50
2019-03-02T08:47:37.965Z,75.19
2019-03-02T08:48:37.963Z,75.40
2019-03-02T08:49:38.497Z,74.77
2019-03-02T08:50:37.964Z,75.40
2019-03-02T08:51:37.499Z,75.26
2019-03-02T08:52:37.078Z,74.84
2019-03-02T08:53:37.962Z,74.33
2019-03-02T08:54:36.979Z,74.43
2019-03-02T08:55:36.943Z,74.74
2019-03-02T08:56:36.998Z,74.43
2019-03-02T08:57:36.879Z,73.91
2019-03-02T08:58:37.466Z,74.74
2019-03-02T08:59:38.086Z,74.74
2019-03-02T09:00:38.943Z,74.88
2019-03-02T09:01:37.190Z,74.57
2019-03-02T09:02:36.720Z,74.22
2019-03-02T09:03:37.216Z,75.05
2019-03-02T09:04:37.463Z,75.09
2019-03-02T09:05:43.798Z,75.09
2019-03-02T09:06:37.501Z,75.15
2019-03-02T09:07:36.593Z,75.19
2019-03-02T09:08:36.758Z,75.15
2019-03-02T09:09:36.488Z,75.05
2019-03-02T09:10:37.137Z,74.53
2019-03-02T09:11:36.504Z,74.84
2019-03-02T09:12:36.964Z,74.74
2019-03-02T09:13:36.967Z,74.22
2019-03-02T09:14:36.346Z,74.43
2019-03-02T09:15:36.966Z,75.26
2019-03-02T09:16:38.567Z,75.46
2019-03-02T09:17:36.964Z,74.29
2019-03-02T09:18:44.320Z,73.57
2019-03-02T09:19:36.971Z,73.71
2019-03-02T09:20:37.043Z,73.88
2019-03-02T09:21:36.501Z,73.67
2019-03-02T09:22:36.072Z,73.88
2019-03-02T09:23:37.127Z,74.08
2019-03-02T09:24:36.967Z,73.98
2019-03-02T09:25:36.966Z,73.57
2019-03-02T09:26:36.003Z,73.74
2019-03-02T09:27:36.466Z,73.85
2019-03-02T09:28:36.467Z,73.22
2019-03-02T09:29:36.473Z,72.81
2019-03-02T09:30:36.463Z,72.61
2019-03-02T09:31:38.336Z,73.33
2019-03-02T09:32:35.801Z,72.61
2019-03-02T09:33:36.652Z,71.67
2019-03-02T09:34:37.069Z,70.85
2019-03-02T09:35:36.468Z,70.85
2019-03-02T09:36:35.649Z,71.16
2019-03-02T09:37:35.592Z,70.95
2019-03-02T09:38:36.467Z,70.64
2019-03-02T09:39:37.531Z,71.37
2019-03-02T09:40:36.470Z,70.75
2019-03-02T09:41:35.505Z,70.78
2019-03-02T09:42:40.201Z,70.47
2019-03-02T09:43:35.974Z,70.33
2019-03-02T09:44:37.965Z,70.95
2019-03-02T09:45:35.337Z,70.64
2019-03-02T09:46:35.510Z,69.74
2019-03-02T09:47:35.268Z,69.64
2019-03-02T09:48:35.985Z,69.12
2019-03-02T09:49:37.465Z,68.30
2019-03-02T09:50:35.195Z,68.19
2019-03-02T09:51:35.970Z,68.51
2019-03-02T09:52:35.502Z,67.58
2019-03-02T09:53:35.086Z,68.19
2019-03-02T09:54:35.997Z,68.19
2019-03-02T09:55:35.989Z,68.30
2019-03-02T09:56:35.973Z,67.78
2019-03-02T09:57:35.021Z,68.61
2019-03-02T09:58:34.931Z,68.71
2019-03-02T09:59:35.482Z,69.23
2019-03-02T10:00:36.048Z,67.37
2019-03-02T10:01:35.705Z,67.24
2019-03-02T10:02:35.008Z,68.16
2019-03-02T10:03:35.481Z,67.96
2019-03-02T10:04:35.884Z,66.96
2019-03-02T10:05:35.499Z,66.96
2019-03-02T10:06:35.479Z,66.85
2019-03-02T10:07:37.866Z,66.72
2019-03-02T10:08:34.607Z,67.03
2019-03-02T10:09:34.607Z,66.75
2019-03-02T10:10:34.555Z,67.13
2019-03-02T10:11:35.481Z,67.34
2019-03-02T10:12:34.509Z,66.51
2019-03-02T10:13:34.444Z,66.61
2019-03-02T10:14:35.127Z,66.61
2019-03-02T10:15:34.975Z,65.86
2019-03-02T10:16:34.348Z,65.69
2019-03-02T10:17:34.859Z,64.03
2019-03-02T10:18:34.296Z,64.55
2019-03-02T10:19:34.355Z,64.83
2019-03-02T10:20:34.248Z,64.73
2019-03-02T10:21:34.997Z,64.83
2019-03-02T10:22:35.385Z,64.83
2019-03-02T10:23:34.125Z,64.42
2019-03-02T10:24:34.088Z,62.97
2019-03-02T10:25:34.973Z,63.00
2019-03-02T10:26:34.973Z,64.03
2019-03-02T10:27:34.034Z,63.82
2019-03-02T10:28:35.079Z,63.51
2019-03-02T10:29:44.273Z,63.62
2019-03-02T10:30:34.503Z,63.82
2019-03-02T10:31:34.492Z,61.35
2019-03-02T10:32:34.031Z,62.59
2019-03-02T10:33:33.806Z,62.04
2019-03-02T10:34:33.770Z,61.97
2019-03-02T10:35:33.739Z,61.76
2019-03-02T10:36:33.712Z,62.38
2019-03-02T10:37:34.032Z,61.73
2019-03-02T10:38:34.508Z,61.55
2019-03-02T10:39:33.663Z,62.17
2019-03-02T10:40:33.600Z,62.76
2019-03-02T10:41:33.611Z,62.43
2019-03-02T10:42:35.970Z,61.40
2019-03-02T10:43:33.995Z,61.50
2019-03-02T10:44:33.452Z,60.95
2019-03-02T10:45:33.768Z,59.23
2019-03-02T10:46:34.004Z,59.74
2019-03-02T10:47:33.391Z,59.53
2019-03-02T10:48:34.004Z,59.84
2019-03-02T10:49:33.295Z,59.46
2019-03-02T10:50:33.278Z,59.25
2019-03-02T10:51:37.460Z,58.50
2019-03-02T10:52:33.534Z,59.67
2019-03-02T10:53:33.190Z,59.95
2019-03-02T10:54:34.831Z,60.33
2019-03-02T10:55:34.004Z,60.33
2019-03-02T10:56:33.264Z,59.72
2019-03-02T10:57:33.055Z,59.07
2019-03-02T10:58:34.696Z,58.97
2019-03-02T10:59:32.981Z,58.65
2019-03-02T11:00:32.948Z,58.53
2019-03-02T11:01:33.505Z,58.45
2019-03-02T11:02:32.890Z,58.55
2019-03-02T11:03:33.072Z,57.32
2019-03-02T11:04:32.827Z,58.69
2019-03-02T11:05:33.502Z,59.41
2019-03-02T11:06:34.132Z,57.86
2019-03-02T11:07:32.732Z,58.99
2019-03-02T11:08:33.051Z,59.30
2019-03-02T11:09:32.834Z,58.27
2019-03-02T11:10:32.643Z,58.58
2019-03-02T11:11:33.682Z,59.61
2019-03-02T11:12:32.575Z,58.48
2019-03-02T11:13:33.045Z,57.96
2019-03-02T11:14:32.519Z,58.17
2019-03-02T11:15:32.999Z,59.30
2019-03-02T11:16:32.451Z,58.89
2019-03-02T11:17:33.013Z,58.58
2019-03-02T11:18:34.532Z,57.03
2019-03-02T11:19:33.015Z,57.96
2019-03-02T11:20:32.330Z,58.06
2019-03-02T11:21:34.618Z,58.35
2019-03-02T11:22:38.554Z,57.32
2019-03-02T11:23:32.543Z,57.62
2019-03-02T11:24:32.208Z,57.55
2019-03-02T11:25:33.008Z,57.65
2019-03-02T11:26:33.008Z,57.03
2019-03-02T11:27:33.003Z,57.03
2019-03-02T11:28:32.542Z,57.68
2019-03-02T11:29:32.049Z,56.85
2019-03-02T11:30:32.015Z,57.37
2019-03-02T11:31:32.532Z,57.17
2019-03-02T11:32:32.504Z,57.26
2019-03-02T11:33:32.230Z,57.14
2019-03-02T11:34:33.798Z,57.55
2019-03-02T11:35:31.887Z,57.24
2019-03-02T11:36:31.853Z,56.93
2019-03-02T11:37:32.511Z,56.62
2019-03-02T11:38:33.435Z,57.55
2019-03-02T11:39:31.743Z,57.45
2019-03-02T11:40:33.029Z,56.52
2019-03-02T11:41:32.510Z,56.34
2019-03-02T11:42:31.639Z,56.85
2019-03-02T11:43:31.610Z,56.21
2019-03-02T11:44:31.608Z,56.21
2019-03-02T11:45:32.506Z,56.52
2019-03-02T11:46:32.507Z,56.41
2019-03-02T11:47:33.096Z,56.80
2019-03-02T11:48:31.457Z,57.21
2019-03-02T11:49:34.756Z,56.80
2019-03-02T11:50:31.392Z,57.45
2019-03-02T11:51:31.367Z,57.14
2019-03-02T11:52:34.968Z,57.55
2019-03-02T11:53:32.022Z,56.80
2019-03-02T11:54:31.297Z,57.32
2019-03-02T11:55:32.023Z,57.32
2019-03-02T11:56:32.019Z,57.52
2019-03-02T11:57:31.171Z,56.67
2019-03-02T11:58:33.561Z,56.77
2019-03-02T11:59:31.556Z,55.93
2019-03-02T12:00:37.813Z,55.41
2019-03-02T12:01:34.161Z,55.00
2019-03-02T12:02:32.013Z,55.51
2019-03-02T12:03:31.510Z,55.62
2019-03-02T12:04:31.050Z,56.13
2019-03-02T12:05:31.512Z,54.90
2019-03-02T12:06:31.517Z,55.10
2019-03-02T12:07:30.868Z,54.58
2019-03-02T12:08:31.512Z,54.97
2019-03-02T12:09:30.838Z,54.35
2019-03-02T12:10:30.771Z,54.77
2019-03-02T12:11:31.639Z,54.79
2019-03-02T12:12:30.703Z,55.21
2019-03-02T12:13:34.775Z,54.79
2019-03-02T12:14:30.651Z,55.00
2019-03-02T12:15:31.048Z,55.82
2019-03-02T12:16:30.581Z,55.10
2019-03-02T12:17:31.511Z,54.90
2019-03-02T12:18:31.511Z,54.87
2019-03-02T12:19:30.602Z,54.66
2019-03-02T12:20:30.491Z,54.56
2019-03-02T12:21:31.016Z,54.64
2019-03-02T12:22:34.405Z,54.53
2019-03-02T12:23:34.091Z,54.94
2019-03-02T12:24:30.335Z,53.14
2019-03-02T12:25:31.090Z,54.46
2019-03-02T12:26:30.277Z,54.66
2019-03-02T12:27:31.012Z,53.25
2019-03-02T12:28:33.127Z,53.04
2019-03-02T12:29:30.192Z,53.86
2019-03-02T12:30:30.181Z,52.91
2019-03-02T12:31:31.939Z,52.71
2019-03-02T12:32:31.013Z,52.91
2019-03-02T12:33:31.017Z,53.25
2019-03-02T12:34:34.439Z,53.66
2019-03-02T12:35:34.447Z,53.89
2019-03-02T12:36:30.515Z,54.82
2019-03-02T12:37:32.826Z,55.02
2019-03-02T12:38:30.520Z,55.02
2019-03-02T12:39:29.886Z,54.92
2019-03-02T12:40:29.847Z,55.15
2019-03-02T12:41:29.850Z,55.36
2019-03-02T12:42:31.888Z,56.08
2019-03-02T12:43:30.517Z,55.26
2019-03-02T12:44:30.524Z,55.33
2019-03-02T12:45:29.975Z,55.33
2019-03-02T12:46:29.690Z,54.82
2019-03-02T12:47:29.848Z,55.05
2019-03-02T12:48:29.602Z,55.26
2019-03-02T12:49:29.582Z,55.05
2019-03-02T12:50:30.517Z,55.59
2019-03-02T12:51:29.545Z,55.49
2019-03-02T12:52:30.020Z,55.59
2019-03-02T12:53:30.037Z,56.62